createdAt,value
2022-11-25T00:01:19.164Z,9.50
2022-11-25T00:03:52.284Z,10.70
2022-11-25T00:06:29.551Z,9.30
2022-11-25T00:09:01.181Z,10.88
2022-11-25T00:11:43.131Z,10.20
2022-11-25T00:14:19.542Z,10.60
2022-11-25T00:16:51.518Z,11.32
2022-11-25T00:19:24.945Z,11.10
2022-11-25T00:21:59.215Z,11.77
2022-11-25T00:24:28.702Z,11.95
2022-11-25T00:26:59.412Z,11.40
2022-11-25T00:29:29.982Z,11.35
2022-11-25T00:31:59.954Z,11.02
2022-11-25T00:34:30.150Z,11.40
2022-11-25T00:36:58.513Z,11.25
2022-11-25T00:39:30.598Z,11.07
2022-11-25T00:42:21.749Z,10.57
2022-11-25T00:44:55.937Z,11.40
2022-11-25T00:47:28.638Z,12.32
2022-11-25T00:50:05.349Z,11.25
2022-11-25T00:52:40.347Z,11.80
2022-11-25T00:55:12.700Z,11.13
2022-11-25T00:57:43.324Z,11.30
2022-11-25T01:00:17.293Z,10.48
2022-11-25T01:02:51.510Z,10.40
2022-11-25T01:05:22.664Z,10.55
2022-11-25T01:07:52.962Z,10.13
2022-11-25T01:10:23.336Z,11.43
2022-11-25T01:12:58.342Z,10.75
2022-11-25T01:15:26.473Z,11.63
2022-11-25T01:17:58.395Z,10.65
2022-11-25T01:20:33.976Z,10.50
2022-11-25T01:23:10.235Z,11.23
2022-11-25T01:25:42.170Z,9.37
2022-11-25T01:28:26.738Z,11.45
2022-11-25T01:31:30.064Z,11.40
2022-11-25T01:34:12.075Z,11.27
2022-11-25T01:36:41.461Z,11.38
2022-11-25T01:39:32.927Z,11.77
2022-11-25T01:42:04.421Z,11.27
2022-11-25T01:44:36.342Z,11.18
2022-11-25T01:47:24.606Z,11.50
2022-11-25T01:50:11.107Z,11.90
2022-11-25T01:52:46.975Z,12.80
2022-11-25T01:55:32.167Z,12.52
2022-11-25T01:58:18.689Z,12.43
2022-11-25T02:00:54.262Z,12.55
2022-11-25T02:03:37.277Z,13.60
2022-11-25T02:06:44.475Z,12.85
2022-11-25T02:09:15.735Z,13.05
2022-11-25T02:11:49.961Z,13.05
2022-11-25T02:14:23.187Z,13.97
2022-11-25T02:16:54.828Z,13.90
2022-11-25T02:19:45.450Z,12.63
2022-11-25T02:22:27.534Z,15.40
2022-11-25T02:25:19.980Z,13.95
2022-11-25T02:28:00.034Z,13.27
2022-11-25T02:30:27.689Z,13.50
2022-11-25T02:33:02.620Z,14.32
2022-11-25T02:35:51.489Z,13.50
2022-11-25T02:38:38.205Z,12.30
2022-11-25T02:41:22.864Z,12.90
2022-11-25T02:43:58.879Z,13.80
2022-11-25T02:46:32.162Z,13.18
2022-11-25T02:49:09.260Z,13.85
2022-11-25T02:51:47.580Z,14.32
2022-11-25T02:54:18.478Z,14.93
2022-11-25T02:56:51.720Z,13.30
2022-11-25T02:59:21.956Z,15.02
2022-11-25T03:01:53.021Z,14.40
2022-11-25T03:04:28.254Z,13.68
2022-11-25T03:07:02.067Z,13.25
2022-11-25T03:09:33.090Z,13.95
2022-11-25T03:12:20.090Z,14.80
2022-11-25T03:14:51.219Z,13.40
2022-11-25T03:17:27.390Z,13.40
2022-11-25T03:19:58.054Z,10.73
2022-11-25T03:22:31.783Z,13.57
2022-11-25T03:25:03.102Z,13.57
2022-11-25T03:27:39.056Z,13.88
2022-11-25T03:30:36.431Z,13.73
2022-11-25T03:33:09.064Z,13.80
2022-11-25T03:35:40.298Z,13.60
2022-11-25T03:38:15.135Z,14.02
2022-11-25T03:40:47.222Z,14.23
2022-11-25T03:43:21.043Z,14.20
2022-11-25T03:45:50.441Z,14.27
2022-11-25T03:48:21.385Z,14.13
2022-11-25T03:50:53.180Z,14.30
2022-11-25T03:53:23.086Z,15.20
2022-11-25T03:55:52.320Z,14.98
2022-11-25T03:58:29.422Z,15.07
2022-11-25T04:01:07.097Z,14.65
2022-11-25T04:03:39.242Z,14.68
2022-11-25T04:06:11.130Z,14.43
2022-11-25T04:08:45.110Z,14.55
2022-11-25T04:11:14.463Z,15.57
2022-11-25T04:13:50.742Z,15.23
2022-11-25T04:16:26.578Z,13.32
2022-11-25T04:18:57.414Z,13.00
2022-11-25T04:21:28.899Z,14.18
2022-11-25T04:24:03.591Z,13.80
2022-11-25T04:26:37.019Z,13.38
2022-11-25T04:29:10.854Z,14.27
2022-11-25T04:31:41.498Z,13.50
2022-11-25T04:34:14.355Z,13.40
2022-11-25T04:36:47.082Z,12.90
2022-11-25T04:39:19.393Z,13.45
2022-11-25T04:41:49.495Z,13.93
2022-11-25T04:44:23.013Z,12.57
2022-11-25T04:46:58.620Z,11.98
2022-11-25T04:49:31.566Z,14.05
2022-11-25T04:52:00.737Z,12.85
2022-11-25T04:54:29.461Z,11.65
2022-11-25T04:57:02.315Z,13.20
2022-11-25T04:59:41.458Z,12.90
2022-11-25T05:02:20.972Z,11.73
2022-11-25T05:05:02.628Z,13.70
2022-11-25T05:07:35.745Z,15.73
2022-11-25T05:10:04.800Z,17.65
2022-11-25T05:12:52.750Z,12.90
2022-11-25T05:15:27.466Z,12.85
2022-11-25T05:17:57.106Z,12.77
2022-11-25T05:20:43.470Z,12.60
2022-11-25T05:23:23.263Z,13.35
2022-11-25T05:25:54.079Z,14.23
2022-11-25T05:28:30.314Z,14.20
2022-11-25T05:30:59.498Z,13.43
2022-11-25T05:33:31.862Z,14.23
2022-11-25T05:36:09.195Z,13.60
2022-11-25T05:38:46.196Z,13.52
2022-11-25T05:41:26.454Z,12.88
2022-11-25T05:44:03.446Z,13.25
2022-11-25T05:46:33.212Z,13.82
2022-11-25T05:49:03.436Z,14.13
2022-11-25T05:51:34.078Z,13.13
2022-11-25T05:54:09.517Z,12.70
2022-11-25T05:56:51.925Z,12.70
2022-11-25T05:59:43.706Z,12.73
2022-11-25T06:02:27.130Z,12.85
2022-11-25T06:05:00.668Z,12.68
2022-11-25T06:07:32.866Z,13.50
2022-11-25T06:10:04.733Z,11.98
2022-11-25T06:12:39.473Z,12.55
2022-11-25T06:15:08.765Z,12.90
2022-11-25T06:17:38.758Z,13.07
2022-11-25T06:20:15.792Z,12.05
2022-11-25T06:22:47.477Z,12.48
2022-11-25T06:25:27.100Z,13.02
2022-11-25T06:28:12.488Z,12.68
2022-11-25T06:30:44.934Z,15.23
2022-11-25T06:33:42.637Z,9.95
2022-11-25T06:36:17.381Z,13.13
2022-11-25T06:39:00.383Z,13.32
2022-11-25T06:41:28.917Z,12.13
2022-11-25T06:44:00.326Z,13.68
2022-11-25T06:46:27.690Z,12.65
2022-11-25T06:49:04.473Z,13.13
2022-11-25T06:51:35.937Z,14.00
2022-11-25T06:54:06.020Z,13.63
2022-11-25T06:56:36.959Z,14.30
2022-11-25T06:59:09.438Z,13.07
2022-11-25T07:01:40.365Z,14.77
2022-11-25T07:04:11.417Z,14.05
2022-11-25T07:06:43.302Z,15.30
2022-11-25T07:09:13.198Z,14.93
2022-11-25T07:11:42.494Z,18.83
2022-11-25T07:16:57.219Z,17.33
2022-11-25T07:19:27.176Z,16.95
2022-11-25T07:21:56.751Z,18.83
2022-11-25T07:24:25.550Z,17.50
2022-11-25T07:26:58.329Z,16.63
2022-11-25T07:32:22.945Z,17.30
2022-11-25T07:34:54.702Z,13.33
2022-11-25T07:37:24.508Z,17.88
2022-11-25T07:39:58.557Z,18.08
2022-11-25T07:42:30.762Z,20.20
2022-11-25T07:45:01.724Z,17.50
2022-11-25T07:47:55.873Z,16.80
2022-11-25T07:50:27.301Z,16.88
2022-11-25T07:52:56.612Z,15.77
2022-11-25T07:55:24.935Z,16.20
2022-11-25T07:57:55.479Z,17.00
2022-11-25T08:00:27.556Z,15.75
2022-11-25T08:02:59.259Z,15.82
2022-11-25T08:05:40.857Z,15.38
2022-11-25T08:08:14.147Z,15.75
2022-11-25T08:10:44.362Z,15.32
2022-11-25T08:13:13.908Z,16.77
2022-11-25T08:15:43.210Z,15.55
2022-11-25T08:18:15.643Z,16.55
2022-11-25T08:20:44.308Z,16.58
2022-11-25T08:23:16.413Z,16.65
2022-11-25T08:25:50.404Z,17.40
2022-11-25T08:28:27.237Z,16.73
2022-11-25T08:31:16.107Z,15.18
2022-11-25T08:33:47.911Z,16.45
2022-11-25T08:36:26.291Z,15.52
2022-11-25T08:39:28.971Z,16.17
2022-11-25T08:42:01.900Z,16.27
2022-11-25T08:44:32.459Z,17.58
2022-11-25T08:47:02.168Z,17.20
2022-11-25T08:49:39.111Z,17.85
2022-11-25T08:52:11.617Z,16.45
2022-11-25T08:54:47.342Z,14.55
2022-11-25T08:57:17.546Z,16.02
2022-11-25T08:59:48.069Z,16.77
2022-11-25T09:02:18.971Z,13.88
2022-11-25T09:04:50.334Z,14.15
2022-11-25T09:07:26.112Z,12.00
2022-11-25T09:09:57.409Z,11.10
2022-11-25T09:12:28.739Z,10.48
2022-11-25T09:14:56.881Z,11.68
2022-11-25T09:17:28.779Z,11.30
2022-11-25T09:19:59.084Z,11.85
2022-11-25T09:22:29.390Z,11.65
2022-11-25T09:25:00.170Z,12.23
2022-11-25T09:27:34.875Z,11.82
2022-11-25T09:30:06.049Z,11.55
2022-11-25T09:32:37.314Z,10.95
2022-11-25T09:35:37.432Z,12.35
2022-11-25T09:38:09.283Z,10.27
2022-11-25T09:41:08.842Z,9.88
2022-11-25T09:44:36.542Z,10.43
2022-11-25T09:47:31.954Z,9.18
2022-11-25T09:50:14.498Z,8.68
2022-11-25T09:53:21.142Z,9.27
2022-11-25T09:56:04.578Z,9.23
2022-11-25T09:59:02.071Z,8.73
2022-11-25T10:01:33.302Z,8.88
2022-11-25T10:04:03.422Z,8.50
2022-11-25T10:06:54.899Z,9.50
2022-11-25T10:09:32.911Z,7.32
2022-11-25T10:12:15.740Z,9.60
2022-11-25T10:14:49.822Z,7.97
2022-11-25T10:17:51.030Z,8.38
2022-11-25T10:20:31.988Z,7.60
2022-11-25T10:23:02.596Z,6.53
2022-11-25T10:25:57.524Z,6.47
2022-11-25T10:28:34.393Z,6.13
2022-11-25T10:31:08.260Z,5.20
2022-11-25T10:34:03.745Z,4.85
2022-11-25T10:36:39.233Z,4.60
2022-11-25T10:39:33.805Z,4.72
2022-11-25T10:42:09.391Z,5.05
2022-11-25T10:44:43.883Z,5.75
2022-11-25T10:47:53.433Z,5.15
2022-11-25T10:50:49.507Z,5.75
2022-11-25T10:53:34.847Z,6.68
2022-11-25T10:56:19.083Z,5.68
2022-11-25T10:58:51.192Z,5.68
2022-11-25T11:01:33.722Z,5.28
2022-11-25T11:04:22.950Z,5.50
2022-11-25T11:07:06.654Z,5.25
2022-11-25T11:09:46.178Z,5.60
2022-11-25T11:12:18.343Z,5.35
2022-11-25T11:14:48.388Z,5.30
2022-11-25T11:17:37.967Z,5.18
2022-11-25T11:20:31.117Z,5.47
2022-11-25T11:23:14.603Z,4.63
2022-11-25T11:26:02.163Z,4.18
2022-11-25T11:28:41.470Z,4.80
2022-11-25T11:31:23.669Z,4.40
2022-11-25T11:34:03.709Z,4.32
2022-11-25T11:36:54.429Z,4.50
2022-11-25T11:39:41.653Z,5.10
2022-11-25T11:42:16.470Z,5.43
2022-11-25T11:45:13.316Z,5.47
2022-11-25T11:47:52.728Z,4.32
2022-11-25T11:50:35.548Z,5.38
2022-11-25T11:53:30.676Z,5.25
2022-11-25T11:56:34.365Z,4.45
2022-11-25T11:59:15.773Z,4.90
2022-11-25T12:02:16.672Z,4.78
2022-11-25T12:05:14.421Z,5.00
2022-11-25T12:08:09.759Z,5.20
2022-11-25T12:11:13.972Z,5.47
2022-11-25T12:14:01.196Z,5.57
2022-11-25T12:16:54.529Z,6.28
2022-11-25T12:19:58.469Z,6.03
2022-11-25T12:22:45.223Z,6.28
2022-11-25T12:25:20.025Z,6.00
2022-11-25T12:28:15.467Z,6.07
2022-11-25T12:31:31.681Z,5.40
2022-11-25T12:34:43.631Z,5.20
2022-11-25T12:37:18.651Z,5.32
2022-11-25T12:40:05.628Z,4.63
2022-11-25T12:42:39.754Z,4.18
2022-11-25T12:45:24.369Z,4.88
2022-11-25T12:47:54.560Z,4.13
2022-11-25T12:50:39.190Z,3.90
2022-11-25T12:53:33.249Z,3.63
2022-11-25T12:56:09.286Z,4.55
2022-11-25T12:58:55.055Z,4.68
2022-11-25T13:01:51.173Z,4.90
2022-11-25T13:05:39.033Z,4.28
2022-11-25T13:08:40.390Z,4.10
2022-11-25T13:11:42.536Z,4.57
2022-11-25T13:15:11.297Z,4.90
2022-11-25T13:17:46.154Z,4.95
2022-11-25T13:20:35.047Z,5.03
2022-11-25T13:23:34.512Z,5.07
2022-11-25T13:26:37.309Z,5.05
2022-11-25T13:29:29.536Z,5.72
2022-11-25T13:32:27.784Z,6.22
2022-11-25T13:35:35.292Z,5.93
2022-11-25T13:38:20.202Z,5.72
2022-11-25T13:43:25.520Z,5.20
2022-11-25T13:45:59.046Z,5.07
2022-11-25T13:48:39.973Z,5.10
2022-11-25T13:51:30.006Z,5.55
2022-11-25T13:54:05.956Z,5.40
2022-11-25T13:56:39.110Z,4.45
2022-11-25T13:59:21.884Z,4.55
2022-11-25T14:01:53.635Z,4.90
2022-11-25T14:05:10.617Z,5.45
2022-11-25T14:08:10.573Z,5.78
2022-11-25T14:10:57.873Z,5.50
2022-11-25T14:14:19.726Z,5.53
2022-11-25T14:17:29.545Z,6.03
2022-11-25T14:20:36.787Z,5.35
2022-11-25T14:23:22.471Z,5.88
2022-11-25T14:25:54.434Z,5.60
2022-11-25T14:28:50.258Z,6.18
2022-11-25T14:31:27.729Z,5.97
2022-11-25T14:34:01.688Z,7.22
2022-11-25T14:36:42.972Z,9.45
2022-11-25T14:39:43.753Z,9.15
2022-11-25T14:42:20.162Z,8.15
2022-11-25T14:45:05.021Z,10.02
2022-11-25T14:50:34.262Z,7.82
2022-11-25T14:53:12.173Z,8.13
2022-11-25T14:55:42.955Z,7.97
2022-11-25T14:58:14.422Z,8.32
2022-11-25T15:01:03.227Z,10.43
2022-11-25T15:03:34.996Z,8.93
2022-11-25T15:06:08.451Z,8.93
2022-11-25T15:09:03.417Z,8.60
2022-11-25T15:11:38.326Z,9.63
2022-11-25T15:14:07.942Z,9.55
2022-11-25T15:16:43.692Z,9.82
2022-11-25T15:19:26.963Z,11.23
2022-11-25T15:25:09.629Z,13.02
2022-11-25T15:27:54.575Z,15.60
2022-11-25T15:30:30.085Z,13.75
2022-11-25T15:33:09.255Z,12.82
2022-11-25T15:35:43.279Z,11.40
2022-11-25T15:38:49.901Z,10.60
2022-11-25T15:41:40.754Z,10.55
2022-11-25T15:44:32.673Z,10.98
2022-11-25T15:47:23.944Z,11.15
2022-11-25T15:50:04.953Z,10.27
2022-11-25T15:52:40.618Z,10.63
2022-11-25T15:55:44.330Z,10.35
2022-11-25T15:58:35.678Z,10.90
2022-11-25T16:01:42.317Z,11.80
2022-11-25T16:06:59.961Z,11.98
2022-11-25T16:12:18.850Z,12.55
2022-11-25T16:14:51.134Z,12.73
2022-11-25T16:17:21.799Z,13.80
2022-11-25T16:19:52.714Z,14.43
2022-11-25T16:22:23.147Z,13.32
2022-11-25T16:25:01.811Z,13.60
2022-11-25T16:27:39.145Z,14.30
2022-11-25T16:30:24.751Z,16.42
2022-11-25T16:32:55.848Z,17.88
2022-11-25T16:35:27.938Z,15.82
2022-11-25T16:37:58.481Z,16.58
2022-11-25T16:40:32.361Z,16.48
2022-11-25T16:43:04.784Z,15.05
2022-11-25T16:45:34.595Z,14.95
2022-11-25T16:48:03.698Z,15.57
2022-11-25T16:50:34.756Z,15.50
2022-11-25T16:53:05.591Z,15.68
2022-11-25T16:55:48.526Z,18.88
2022-11-25T16:58:33.495Z,17.63
2022-11-25T17:01:06.017Z,18.65
2022-11-25T17:03:36.845Z,18.00
2022-11-25T17:06:22.383Z,18.65
2022-11-25T17:08:54.978Z,20.33
2022-11-25T17:11:46.113Z,19.95
2022-11-25T17:14:33.248Z,19.20
2022-11-25T17:17:04.965Z,27.80
2022-11-25T17:19:40.445Z,28.23
2022-11-25T17:22:31.244Z,17.35
2022-11-25T17:25:05.181Z,18.63
2022-11-25T17:27:33.863Z,17.77
2022-11-25T17:30:07.305Z,17.08
2022-11-25T17:32:38.559Z,18.38
2022-11-25T17:35:27.522Z,18.65
2022-11-25T17:38:00.036Z,18.75
2022-11-25T17:40:35.414Z,19.30
2022-11-25T17:43:07.063Z,22.88
2022-11-25T17:45:39.168Z,27.50
2022-11-25T17:48:14.896Z,25.75
2022-11-25T17:50:50.329Z,27.20
2022-11-25T17:53:25.320Z,25.50
2022-11-25T17:55:55.360Z,29.80
2022-11-25T17:58:26.389Z,37.00
2022-11-25T18:00:57.060Z,32.05
2022-11-25T18:03:28.986Z,28.88
2022-11-25T18:05:58.819Z,34.40
2022-11-25T18:08:29.848Z,31.63
2022-11-25T18:11:02.083Z,30.92
2022-11-25T18:13:45.213Z,28.75
2022-11-25T18:16:19.940Z,32.80
2022-11-25T18:18:51.166Z,26.27
2022-11-25T18:24:10.469Z,24.63
2022-11-25T18:26:59.870Z,24.38
2022-11-25T18:29:32.507Z,24.25
2022-11-25T18:32:07.742Z,24.30
2022-11-25T18:34:36.565Z,24.25
2022-11-25T18:37:06.922Z,24.90
2022-11-25T18:39:37.617Z,23.08
2022-11-25T18:42:18.206Z,23.33
2022-11-25T18:44:50.999Z,25.08
2022-11-25T18:47:23.592Z,24.08
2022-11-25T18:49:56.597Z,24.60
2022-11-25T18:52:25.109Z,23.73
2022-11-25T18:54:56.847Z,24.75
2022-11-25T18:57:28.120Z,24.77
2022-11-25T19:00:24.827Z,25.60
2022-11-25T19:02:55.266Z,24.20
2022-11-25T19:05:29.634Z,25.40
2022-11-25T19:08:02.732Z,26.40
2022-11-25T19:10:37.237Z,48.85
2022-11-25T19:16:06.162Z,32.08
2022-11-25T19:18:35.671Z,29.80
2022-11-25T19:21:07.433Z,30.23
2022-11-25T19:23:38.986Z,28.08
2022-11-25T19:26:23.329Z,29.25
2022-11-25T19:29:05.029Z,30.77
2022-11-25T19:31:40.481Z,31.20
2022-11-25T19:34:23.554Z,28.88
2022-11-25T19:36:53.941Z,29.48
2022-11-25T19:39:24.628Z,31.75
2022-11-25T19:41:54.274Z,32.22
2022-11-25T19:44:30.058Z,31.80
2022-11-25T19:47:14.941Z,34.20
2022-11-25T19:49:48.315Z,32.92
2022-11-25T19:52:39.400Z,32.78
2022-11-25T19:55:36.271Z,35.13
2022-11-25T19:58:05.429Z,33.28
2022-11-25T20:00:38.055Z,35.05
2022-11-25T20:03:21.404Z,36.45
2022-11-25T20:05:56.195Z,34.45
2022-11-25T20:08:31.179Z,36.97
2022-11-25T20:11:00.903Z,49.03
2022-11-25T20:13:32.229Z,48.60
2022-11-25T20:16:02.223Z,53.67
2022-11-25T20:18:31.471Z,56.40
2022-11-25T20:21:12.888Z,52.03
2022-11-25T20:26:44.288Z,48.53
2022-11-25T20:29:30.383Z,49.67
2022-11-25T20:32:02.252Z,49.60
2022-11-25T20:40:17.181Z,53.63
2022-11-25T20:42:53.738Z,51.28
2022-11-25T20:45:27.532Z,50.25
2022-11-25T20:48:00.920Z,50.90
2022-11-25T20:50:33.245Z,50.92
2022-11-25T20:53:01.985Z,44.88
2022-11-25T20:55:37.093Z,48.63
2022-11-25T20:58:34.812Z,60.90
2022-11-25T21:03:38.915Z,52.08
2022-11-25T21:06:37.829Z,57.15
2022-11-25T21:09:23.692Z,56.53
2022-11-25T21:11:55.828Z,58.65
2022-11-25T21:14:29.854Z,64.78
2022-11-25T21:17:00.824Z,68.85
2022-11-25T21:19:28.665Z,71.22
2022-11-25T21:21:59.769Z,84.90
2022-11-25T21:24:42.851Z,73.22
2022-11-25T21:27:15.221Z,67.03
2022-11-25T21:29:49.103Z,56.38
2022-11-25T21:32:25.752Z,53.35
2022-11-25T21:34:54.993Z,51.55
2022-11-25T21:37:31.779Z,52.47
2022-11-25T21:40:00.638Z,48.72
2022-11-25T21:42:35.603Z,48.95
2022-11-25T21:45:09.472Z,48.13
2022-11-25T21:47:41.749Z,45.13
2022-11-25T21:50:32.446Z,46.28
2022-11-25T21:53:01.777Z,45.75
2022-11-25T21:58:28.998Z,46.40
2022-11-25T22:01:04.152Z,46.25
2022-11-25T22:03:35.142Z,43.92
2022-11-25T22:06:05.628Z,46.47
2022-11-25T22:08:39.328Z,47.13
2022-11-25T22:11:21.068Z,43.33
2022-11-25T22:13:52.543Z,42.60
2022-11-25T22:16:33.455Z,44.47
2022-11-25T22:19:02.495Z,43.38
2022-11-25T22:21:34.516Z,42.17
2022-11-25T22:24:16.725Z,41.42
2022-11-25T22:26:57.799Z,45.28
2022-11-25T22:29:47.274Z,43.65
2022-11-25T22:32:26.058Z,47.60
2022-11-25T22:34:56.130Z,53.70
2022-11-25T22:37:28.321Z,49.03
2022-11-25T22:39:58.757Z,50.85
2022-11-25T22:42:33.790Z,56.42
2022-11-25T22:45:06.086Z,58.30
2022-11-25T22:47:47.048Z,56.50
2022-11-25T22:50:34.604Z,63.17
2022-11-25T22:53:05.494Z,54.78
2022-11-25T22:55:59.166Z,55.97
2022-11-25T22:58:30.038Z,57.03
2022-11-25T23:01:06.359Z,53.05
2022-11-25T23:03:37.248Z,46.75
2022-11-25T23:06:19.548Z,43.10
2022-11-25T23:08:50.283Z,43.42
2022-11-25T23:11:20.753Z,43.80
2022-11-25T23:13:54.707Z,43.83
2022-11-25T23:16:26.761Z,43.92
2022-11-25T23:18:57.873Z,47.67
2022-11-25T23:27:01.030Z,51.13
2022-11-25T23:29:35.838Z,48.45
2022-11-25T23:32:09.025Z,44.35
2022-11-25T23:34:40.608Z,43.75
2022-11-25T23:37:12.835Z,43.15
2022-11-25T23:39:43.039Z,43.55
2022-11-25T23:42:27.805Z,40.92
2022-11-25T23:44:57.569Z,44.50
2022-11-25T23:47:28.426Z,41.50
2022-11-25T23:50:00.951Z,40.80
2022-11-25T23:52:33.551Z,41.85
2022-11-25T23:55:04.467Z,40.85
